createdAt,value
2023-02-19T00:01:33.796Z,99513.30
2023-02-19T00:04:55.890Z,99503.92
2023-02-19T00:08:17.728Z,99496.79
2023-02-19T00:11:40.114Z,99490.00
2023-02-19T00:15:05.034Z,99498.68
2023-02-19T00:18:26.856Z,99497.80
2023-02-19T00:21:51.792Z,99498.30
2023-02-19T00:25:13.931Z,99492.21
2023-02-19T00:28:36.040Z,99492.73
2023-02-19T00:31:57.977Z,99490.66
2023-02-19T00:35:19.853Z,99491.00
2023-02-19T00:38:43.249Z,99481.45
2023-02-19T00:42:05.090Z,99485.06
2023-02-19T00:45:26.873Z,99484.71
2023-02-19T00:48:50.269Z,99483.84
2023-02-19T00:52:12.015Z,99482.28
2023-02-19T00:55:34.127Z,99480.20
2023-02-19T00:58:56.507Z,99487.13
2023-02-19T01:02:18.577Z,99493.20
2023-02-19T01:05:40.437Z,99488.34
2023-02-19T01:09:02.835Z,99486.94
2023-02-19T01:12:25.898Z,99484.67
2023-02-19T01:15:47.910Z,99483.14
2023-02-19T01:19:09.708Z,99479.67
2023-02-19T01:22:31.527Z,99482.28
2023-02-19T01:25:53.303Z,99479.85
2023-02-19T01:29:17.437Z,99475.69
2023-02-19T01:32:39.212Z,99475.69
2023-02-19T01:36:04.074Z,99473.98
2023-02-19T01:39:25.838Z,99477.09
2023-02-19T01:42:47.807Z,99479.54
2023-02-19T01:46:09.634Z,99484.58
2023-02-19T01:49:39.885Z,99488.92
2023-02-19T01:53:05.440Z,99485.27
2023-02-19T01:56:27.939Z,99484.73
2023-02-19T01:59:53.353Z,99478.28
2023-02-19T02:03:16.360Z,99480.20
2023-02-19T02:07:24.649Z,99476.41
2023-02-19T02:10:46.466Z,99480.94
2023-02-19T02:14:08.501Z,99478.81
2023-02-19T02:17:43.719Z,99477.42
2023-02-19T02:21:08.802Z,99473.26
2023-02-19T02:24:57.901Z,99479.52
2023-02-19T02:28:43.292Z,99477.59
2023-02-19T02:32:13.658Z,99480.55
2023-02-19T02:35:43.009Z,99484.36
2023-02-19T02:39:08.538Z,99487.31
2023-02-19T02:42:33.958Z,99491.45
2023-02-19T02:45:58.809Z,99487.97
2023-02-19T02:49:25.969Z,99481.55
2023-02-19T02:53:09.392Z,99481.21
2023-02-19T02:56:31.935Z,99481.90
2023-02-19T02:59:53.820Z,99480.34
2023-02-19T03:03:20.840Z,99476.52
2023-02-19T03:06:44.299Z,99474.09
2023-02-19T03:10:10.016Z,99470.60
2023-02-19T03:13:54.137Z,99473.54
2023-02-19T03:17:40.633Z,99472.48
2023-02-19T03:21:02.798Z,99473.70
2023-02-19T03:24:47.825Z,99475.61
2023-02-19T03:28:11.754Z,99477.16
2023-02-19T03:31:34.247Z,99481.83
2023-02-19T03:35:02.605Z,99478.17
2023-02-19T03:38:38.022Z,99479.56
2023-02-19T03:42:28.637Z,99474.52
2023-02-19T03:46:12.031Z,99472.63
2023-02-19T03:49:49.202Z,99467.39
2023-02-19T03:53:14.765Z,99462.52
2023-02-19T03:56:45.050Z,99458.34
2023-02-19T04:00:39.336Z,99452.77
2023-02-19T04:04:07.250Z,99450.30
2023-02-19T04:07:33.134Z,99446.30
2023-02-19T04:10:55.570Z,99453.91
2023-02-19T04:14:34.840Z,99456.84
2023-02-19T04:18:00.863Z,99453.18
2023-02-19T04:21:23.630Z,99443.09
2023-02-19T04:24:49.927Z,99439.43
2023-02-19T04:28:13.723Z,99435.95
2023-02-19T04:31:35.917Z,99435.91
2023-02-19T04:34:57.749Z,99435.38
2023-02-19T04:38:19.693Z,99431.21
2023-02-19T04:41:41.466Z,99428.41
2023-02-19T04:45:03.447Z,99425.60
2023-02-19T04:48:25.412Z,99424.89
2023-02-19T04:51:47.253Z,99427.66
2023-02-19T04:55:09.793Z,99440.30
2023-02-19T04:58:31.577Z,99439.60
2023-02-19T05:01:53.477Z,99432.98
2023-02-19T05:05:15.363Z,99424.46
2023-02-19T05:08:37.400Z,99423.24
2023-02-19T05:15:34.910Z,99429.98
2023-02-19T05:18:56.685Z,99424.58
2023-02-19T05:22:18.512Z,99416.76
2023-02-19T05:25:40.267Z,99414.50
2023-02-19T05:29:02.693Z,99422.99
2023-02-19T05:32:24.518Z,99423.85
2023-02-19T05:35:49.843Z,99417.94
2023-02-19T05:39:12.369Z,99412.20
2023-02-19T05:42:34.181Z,99412.38
2023-02-19T05:45:59.450Z,99408.04
2023-02-19T05:49:21.293Z,99408.73
2023-02-19T05:52:44.304Z,99405.95
2023-02-19T05:56:25.225Z,99409.77
2023-02-19T05:59:47.020Z,99412.36
2023-02-19T06:03:10.829Z,99410.42
2023-02-19T06:06:32.965Z,99411.15
2023-02-19T06:09:55.098Z,99409.08
2023-02-19T06:13:17.881Z,99411.34
2023-02-19T06:16:41.283Z,99413.58
2023-02-19T06:20:03.514Z,99414.48
2023-02-19T06:23:30.437Z,99417.79
2023-02-19T06:26:52.303Z,99422.66
2023-02-19T06:30:14.086Z,99425.45
2023-02-19T06:33:36.277Z,99431.73
2023-02-19T06:36:58.650Z,99430.03
2023-02-19T06:40:20.393Z,99427.14
2023-02-19T06:43:42.382Z,99426.88
2023-02-19T06:47:04.289Z,99422.80
2023-02-19T06:50:26.082Z,99419.95
2023-02-19T06:53:48.111Z,99417.42
2023-02-19T06:57:09.905Z,99420.79
2023-02-19T07:00:31.710Z,99428.80
2023-02-19T07:03:53.952Z,99432.82
2023-02-19T07:07:15.805Z,99432.85
2023-02-19T07:10:37.567Z,99436.48
2023-02-19T07:14:01.700Z,99438.57
2023-02-19T07:17:23.496Z,99438.91
2023-02-19T07:20:45.239Z,99442.60
2023-02-19T07:24:08.277Z,99447.30
2023-02-19T07:27:30.351Z,99449.36
2023-02-19T07:30:52.440Z,99451.65
2023-02-19T07:34:14.253Z,99449.76
2023-02-19T07:37:36.129Z,99452.74
2023-02-19T07:41:00.537Z,99453.96
2023-02-19T07:44:22.394Z,99448.98
2023-02-19T07:47:44.232Z,99449.02
2023-02-19T07:51:07.962Z,99452.55
2023-02-19T07:54:29.860Z,99455.55
2023-02-19T07:57:51.670Z,99449.71
2023-02-19T08:01:16.476Z,99451.15
2023-02-19T08:04:38.306Z,99459.06
2023-02-19T08:08:00.973Z,99456.53
2023-02-19T08:11:41.609Z,99461.09
2023-02-19T08:15:03.677Z,99464.95
2023-02-19T08:18:26.973Z,99472.27
2023-02-19T08:21:49.007Z,99468.79
2023-02-19T08:25:10.813Z,99475.92
2023-02-19T08:28:33.909Z,99476.66
2023-02-19T08:31:55.754Z,99478.77
2023-02-19T08:35:17.796Z,99481.92
2023-02-19T08:38:39.628Z,99484.41
2023-02-19T08:42:01.355Z,99483.08
2023-02-19T08:45:24.417Z,99482.95
2023-02-19T08:48:46.221Z,99488.89
2023-02-19T08:52:08.030Z,99484.39
2023-02-19T08:55:30.712Z,99486.66
2023-02-19T08:58:52.829Z,99483.02
2023-02-19T09:02:14.641Z,99482.48
2023-02-19T09:05:36.425Z,99475.53
2023-02-19T09:08:58.153Z,99476.41
2023-02-19T09:12:19.967Z,99476.41
2023-02-19T09:15:41.699Z,99481.44
2023-02-19T09:19:05.430Z,99482.83
2023-02-19T09:22:27.266Z,99487.85
2023-02-19T09:25:49.716Z,99493.06
2023-02-19T09:29:11.497Z,99490.11
2023-02-19T09:32:33.831Z,99493.93
2023-02-19T09:35:59.515Z,99490.64
2023-02-19T09:39:21.808Z,99490.15
2023-02-19T09:42:43.963Z,99491.79
2023-02-19T09:46:36.182Z,99494.27
2023-02-19T09:50:09.400Z,99500.75
2023-02-19T09:53:43.517Z,99504.25
2023-02-19T09:57:06.307Z,99507.03
2023-02-19T10:00:30.660Z,99506.19
2023-02-19T10:03:52.593Z,99502.58
2023-02-19T10:07:16.492Z,99495.51
2023-02-19T10:10:38.535Z,99502.55
2023-02-19T10:14:11.438Z,99501.89
2023-02-19T10:17:34.883Z,99499.97
2023-02-19T10:20:57.652Z,99501.14
2023-02-19T10:24:30.756Z,99497.86
2023-02-19T10:27:52.637Z,99504.17
2023-02-19T10:31:24.816Z,99508.10
2023-02-19T10:34:47.496Z,99511.10
2023-02-19T10:38:16.588Z,99515.25
2023-02-19T10:41:44.051Z,99521.68
2023-02-19T10:45:21.437Z,99514.04
2023-02-19T10:49:00.750Z,99520.73
2023-02-19T10:52:29.669Z,99526.08
2023-02-19T10:56:08.564Z,99526.34
2023-02-19T10:59:30.421Z,99533.10
2023-02-19T11:03:21.682Z,99530.52
2023-02-19T11:06:44.035Z,99531.59
2023-02-19T11:10:07.240Z,99535.45
2023-02-19T11:13:33.205Z,99533.31
2023-02-19T11:16:57.637Z,99536.04
2023-02-19T11:20:19.600Z,99538.61
2023-02-19T11:23:46.143Z,99540.10
2023-02-19T11:27:18.381Z,99541.02
2023-02-19T11:30:42.602Z,99541.63
2023-02-19T11:34:30.049Z,99541.48
2023-02-19T11:38:00.074Z,99538.20
2023-02-19T11:41:44.225Z,99531.77
2023-02-19T11:45:24.720Z,99533.48
2023-02-19T11:48:57.330Z,99535.44
2023-02-19T11:52:40.499Z,99543.84
2023-02-19T11:56:09.126Z,99536.36
2023-02-19T11:59:56.361Z,99534.58
2023-02-19T12:03:59.386Z,99531.88
2023-02-19T12:07:53.010Z,99540.98
2023-02-19T12:11:24.267Z,99543.56
2023-02-19T12:14:52.739Z,99554.73
2023-02-19T12:18:43.225Z,99558.19
2023-02-19T12:22:33.990Z,99561.93
2023-02-19T12:26:20.510Z,99556.92
2023-02-19T12:29:54.829Z,99566.05
2023-02-19T12:33:33.478Z,99570.48
2023-02-19T12:37:13.674Z,99573.45
2023-02-19T12:41:04.230Z,99583.04
2023-02-19T12:44:37.201Z,99586.55
2023-02-19T12:48:24.520Z,99588.02
2023-02-19T12:51:51.046Z,99591.81
2023-02-19T12:55:37.828Z,99595.16
2023-02-19T12:59:09.659Z,99595.89
2023-02-19T13:02:52.193Z,99597.84
2023-02-19T13:06:36.731Z,99607.11
2023-02-19T13:10:08.358Z,99608.17
2023-02-19T13:13:41.966Z,99605.02
2023-02-19T13:17:34.849Z,99609.36
2023-02-19T13:20:57.030Z,99601.69
2023-02-19T13:24:39.262Z,99604.72
2023-02-19T13:28:17.346Z,99607.49
2023-02-19T13:31:57.988Z,99608.85
2023-02-19T13:35:42.500Z,99616.82
2023-02-19T13:39:07.592Z,99621.21
2023-02-19T13:42:35.577Z,99619.50
2023-02-19T13:46:06.985Z,99631.80
2023-02-19T13:49:29.147Z,99639.43
2023-02-19T13:52:58.660Z,99645.98
2023-02-19T13:56:34.351Z,99646.36
2023-02-19T14:00:00.177Z,99650.34
2023-02-19T14:03:31.880Z,99654.88
2023-02-19T14:07:05.766Z,99657.05
2023-02-19T14:10:46.550Z,99662.13
2023-02-19T14:14:47.988Z,99656.61
2023-02-19T14:18:42.063Z,99671.25
2023-02-19T14:22:42.319Z,99679.05
2023-02-19T14:26:07.579Z,99682.05
2023-02-19T14:29:30.093Z,99681.88
2023-02-19T14:33:02.812Z,99679.67
2023-02-19T14:36:36.195Z,99680.80
2023-02-19T14:39:58.323Z,99687.48
2023-02-19T14:43:22.341Z,99690.44
2023-02-19T14:46:58.727Z,99693.09
2023-02-19T14:50:29.979Z,99691.84
2023-02-19T14:53:52.103Z,99695.09
2023-02-19T14:57:18.469Z,99699.35
2023-02-19T15:00:41.987Z,99708.51
2023-02-19T15:04:04.689Z,99713.09
2023-02-19T15:07:30.052Z,99713.27
2023-02-19T15:10:51.929Z,99716.93
2023-02-19T15:14:20.736Z,99717.61
2023-02-19T15:17:42.576Z,99724.91
2023-02-19T15:21:05.874Z,99730.61
2023-02-19T15:24:28.448Z,99732.84
2023-02-19T15:27:50.804Z,99741.33
2023-02-19T15:31:16.280Z,99745.13
2023-02-19T15:34:40.738Z,99754.13
2023-02-19T15:38:02.581Z,99758.40
2023-02-19T15:41:28.519Z,99759.73
2023-02-19T15:45:04.355Z,99761.23
2023-02-19T15:48:36.336Z,99766.23
2023-02-19T15:52:04.001Z,99768.58
2023-02-19T15:55:36.691Z,99769.52
2023-02-19T15:59:07.251Z,99776.21
2023-02-19T16:02:29.231Z,99777.70
2023-02-19T16:06:03.493Z,99781.96
2023-02-19T16:09:43.152Z,99783.92
2023-02-19T16:13:08.365Z,99798.60
2023-02-19T16:16:36.537Z,99805.27
2023-02-19T16:23:45.005Z,99816.77
2023-02-19T16:27:07.882Z,99823.36
2023-02-19T16:30:34.023Z,99833.52
2023-02-19T16:33:58.364Z,99837.44
2023-02-19T16:37:59.296Z,99841.70
2023-02-19T16:41:21.156Z,99851.62
2023-02-19T16:44:43.555Z,99853.79
2023-02-19T16:48:05.393Z,99856.98
2023-02-19T16:51:27.929Z,99864.23
2023-02-19T16:54:50.087Z,99863.79
2023-02-19T16:58:11.886Z,99864.03
2023-02-19T17:01:35.146Z,99863.55
2023-02-19T17:04:56.963Z,99871.59
2023-02-19T17:08:37.574Z,99871.33
2023-02-19T17:11:59.371Z,99869.95
2023-02-19T17:15:22.243Z,99874.90
2023-02-19T17:18:44.347Z,99879.70
2023-02-19T17:22:06.844Z,99881.50
2023-02-19T17:25:28.755Z,99885.39
2023-02-19T17:28:50.819Z,99892.23
2023-02-19T17:32:14.549Z,99893.86
2023-02-19T17:35:36.634Z,99894.80
2023-02-19T17:39:00.097Z,99899.55
2023-02-19T17:42:22.005Z,99906.16
2023-02-19T17:45:43.951Z,99912.02
2023-02-19T17:49:07.551Z,99914.71
2023-02-19T17:52:29.732Z,99914.44
2023-02-19T17:55:51.516Z,99928.21
2023-02-19T17:59:13.853Z,99930.16
2023-02-19T18:02:36.083Z,99936.09
2023-02-19T18:05:57.876Z,99948.95
2023-02-19T18:09:21.599Z,99951.73
2023-02-19T18:12:43.486Z,99960.77
2023-02-19T18:16:06.429Z,99967.02
2023-02-19T18:19:28.360Z,99969.45
2023-02-19T18:22:50.815Z,99975.67
2023-02-19T18:26:13.749Z,99980.69
2023-02-19T18:29:35.526Z,99982.21
2023-02-19T18:32:58.192Z,99985.84
2023-02-19T18:36:20.085Z,99982.35
2023-02-19T18:39:43.891Z,99986.13
2023-02-19T18:43:05.999Z,99987.13
2023-02-19T18:46:27.862Z,99992.31
2023-02-19T18:49:51.958Z,99992.44
2023-02-19T18:53:14.379Z,99994.13
2023-02-19T18:56:46.752Z,99996.17
2023-02-19T19:00:16.050Z,100001.52
2023-02-19T19:03:37.843Z,100016.58
2023-02-19T19:06:59.877Z,100018.96
2023-02-19T19:10:22.250Z,100021.19
2023-02-19T19:13:46.131Z,100029.31
2023-02-19T19:17:08.032Z,100033.92
2023-02-19T19:20:29.879Z,100039.27
2023-02-19T19:23:51.776Z,100038.53
2023-02-19T19:27:13.880Z,100039.34
2023-02-19T19:30:37.193Z,100045.56
2023-02-19T19:33:59.959Z,100046.05
2023-02-19T19:37:21.753Z,100053.48
2023-02-19T19:40:43.575Z,100052.90
2023-02-19T19:44:06.272Z,100059.12
2023-02-19T19:47:28.666Z,100065.85
2023-02-19T19:50:53.465Z,100066.50
2023-02-19T19:54:15.286Z,100070.09
2023-02-19T19:57:39.599Z,100070.92
2023-02-19T20:01:02.630Z,100067.74
2023-02-19T20:04:25.592Z,100071.16
2023-02-19T20:07:47.790Z,100069.35
2023-02-19T20:11:09.885Z,100070.35
2023-02-19T20:14:34.611Z,100067.46
2023-02-19T20:17:56.844Z,100067.53
2023-02-19T20:21:18.732Z,100071.44
2023-02-19T20:24:40.589Z,100072.22
2023-02-19T20:28:05.087Z,100076.13
2023-02-19T20:31:27.080Z,100081.25
2023-02-19T20:34:51.606Z,100089.14
2023-02-19T20:38:17.455Z,100090.12
2023-02-19T20:41:39.363Z,100092.30
2023-02-19T20:45:01.477Z,100103.16
2023-02-19T20:48:23.753Z,100108.30
2023-02-19T20:51:48.304Z,100109.80
2023-02-19T20:55:12.645Z,100115.78
2023-02-19T20:58:34.471Z,100115.38
2023-02-19T21:01:59.775Z,100124.68
2023-02-19T21:05:21.820Z,100133.98
2023-02-19T21:08:50.253Z,100143.30
2023-02-19T21:12:12.641Z,100134.23
2023-02-19T21:15:34.595Z,100140.60
2023-02-19T21:18:57.338Z,100147.30
2023-02-19T21:22:26.845Z,100151.41
2023-02-19T21:25:49.132Z,100147.89
2023-02-19T21:29:19.195Z,100143.65
2023-02-19T21:32:41.130Z,100140.81
2023-02-19T21:36:04.188Z,100139.55
2023-02-19T21:39:27.579Z,100142.77
2023-02-19T21:42:55.534Z,100138.04
2023-02-19T21:46:20.803Z,100135.37
2023-02-19T21:49:42.972Z,100140.69
2023-02-19T21:53:07.210Z,100145.66
2023-02-19T21:56:39.056Z,100154.11
2023-02-19T22:00:02.300Z,100157.55
2023-02-19T22:03:26.769Z,100158.17
2023-02-19T22:06:48.643Z,100159.20
2023-02-19T22:10:13.082Z,100160.91
2023-02-19T22:13:38.685Z,100167.96
2023-02-19T22:17:00.506Z,100172.56
2023-02-19T22:20:22.383Z,100172.52
2023-02-19T22:23:48.938Z,100176.10
2023-02-19T22:27:10.774Z,100183.49
2023-02-19T22:30:35.879Z,100184.13
2023-02-19T22:33:57.758Z,100188.05
2023-02-19T22:37:19.549Z,100184.49
2023-02-19T22:40:46.354Z,100177.70
2023-02-19T22:44:09.716Z,100175.41
2023-02-19T22:47:31.653Z,100178.51
2023-02-19T22:50:55.054Z,100178.11
2023-02-19T22:54:17.165Z,100173.94
2023-02-19T22:57:38.989Z,100176.33
2023-02-19T23:01:00.811Z,100180.48
2023-02-19T23:04:23.896Z,100182.52
2023-02-19T23:07:46.177Z,100174.70
2023-02-19T23:11:08.691Z,100165.84
2023-02-19T23:14:31.485Z,100157.52
2023-02-19T23:17:53.279Z,100163.92
2023-02-19T23:21:16.112Z,100173.64
2023-02-19T23:24:37.939Z,100172.25
2023-02-19T23:28:00.881Z,100180.94
2023-02-19T23:31:22.748Z,100191.51
2023-02-19T23:34:44.610Z,100184.59
2023-02-19T23:38:06.437Z,100183.73
2023-02-19T23:41:28.222Z,100184.96
2023-02-19T23:44:50.062Z,100184.47
2023-02-19T23:48:11.844Z,100178.93
2023-02-19T23:51:33.725Z,100171.83
2023-02-19T23:54:56.192Z,100160.04
2023-02-19T23:58:18.386Z,100156.39
